createdAt,value
2019-04-06T00:01:17.416Z,98881.69
2019-04-06T00:03:45.128Z,98877.70
2019-04-06T00:06:12.729Z,98875.88
2019-04-06T00:08:40.806Z,98875.88
2019-04-06T00:11:11.575Z,98864.45
2019-04-06T00:13:39.261Z,98864.45
2019-04-06T00:16:06.909Z,98868.90
2019-04-06T00:18:34.595Z,98864.92
2019-04-06T00:21:02.220Z,98860.94
2019-04-06T00:23:29.937Z,98860.13
2019-04-06T00:25:57.579Z,98856.61
2019-04-06T00:28:25.256Z,98847.84
2019-04-06T00:31:18.091Z,98851.81
2019-04-06T00:33:46.184Z,98855.29
2019-04-06T00:36:16.784Z,98853.14
2019-04-06T00:38:44.455Z,98860.47
2019-04-06T00:41:13.825Z,98855.64
2019-04-06T00:43:44.127Z,98852.98
2019-04-06T00:46:11.846Z,98852.52
2019-04-06T00:48:39.958Z,98852.52
2019-04-06T00:51:07.748Z,98850.21
2019-04-06T00:53:35.429Z,98845.89
2019-04-06T00:56:03.537Z,98840.08
2019-04-06T00:58:31.184Z,98845.60
2019-04-06T01:00:58.797Z,98845.60
2019-04-06T01:03:26.482Z,98844.63
2019-04-06T01:05:54.391Z,98844.63
2019-04-06T01:08:22.123Z,98837.39
2019-04-06T01:10:49.794Z,98832.56
2019-04-06T01:13:17.477Z,98832.56
2019-04-06T01:15:45.633Z,98836.89
2019-04-06T01:18:13.247Z,98836.42
2019-04-06T01:20:41.102Z,98837.23
2019-04-06T01:23:09.090Z,98846.39
2019-04-06T01:25:37.117Z,98846.39
2019-04-06T01:28:04.761Z,98836.77
2019-04-06T01:30:34.348Z,98836.77
2019-04-06T01:33:02.036Z,98837.59
2019-04-06T01:35:30.121Z,98845.55
2019-04-06T01:37:57.840Z,98840.23
2019-04-06T01:40:25.441Z,98840.23
2019-04-06T01:42:53.918Z,98837.11
2019-04-06T01:45:21.559Z,98837.11
2019-04-06T01:47:49.250Z,98831.34
2019-04-06T01:50:17.390Z,98840.11
2019-04-06T01:52:45.074Z,98834.34
2019-04-06T01:55:12.773Z,98836.83
2019-04-06T01:57:40.406Z,98836.01
2019-04-06T02:00:10.580Z,98836.01
2019-04-06T02:02:39.794Z,98831.88
2019-04-06T02:05:07.474Z,98837.68
2019-04-06T02:07:35.108Z,98837.68
2019-04-06T02:10:03.099Z,98835.85
2019-04-06T02:12:30.767Z,98835.85
2019-04-06T02:14:58.422Z,98835.37
2019-04-06T02:17:26.069Z,98835.50
2019-04-06T02:19:53.767Z,98835.50
2019-04-06T02:22:21.400Z,98835.50
2019-04-06T02:24:50.604Z,98833.20
2019-04-06T02:27:18.319Z,98831.88
2019-04-06T02:29:45.984Z,98831.88
2019-04-06T02:32:41.870Z,98824.77
2019-04-06T02:35:43.477Z,98827.64
2019-04-06T02:38:18.050Z,98827.64
2019-04-06T02:41:10.391Z,98818.02
2019-04-06T02:43:38.351Z,98818.02
2019-04-06T02:46:06.450Z,98827.64
2019-04-06T02:48:34.059Z,98829.95
2019-04-06T02:51:01.778Z,98829.22
2019-04-06T02:53:29.932Z,98832.25
2019-04-06T02:55:58.161Z,98832.25
2019-04-06T02:58:25.914Z,98831.27
2019-04-06T03:00:53.513Z,98835.25
2019-04-06T03:03:21.571Z,98835.25
2019-04-06T03:05:49.555Z,98835.25
2019-04-06T03:08:17.301Z,98829.09
2019-04-06T03:10:46.774Z,98830.77
2019-04-06T03:13:14.461Z,98824.64
2019-04-06T03:15:42.371Z,98823.79
2019-04-06T03:18:10.085Z,98824.14
2019-04-06T03:20:37.774Z,98824.14
2019-04-06T03:23:05.483Z,98819.34
2019-04-06T03:25:33.761Z,98823.79
2019-04-06T03:28:01.403Z,98823.79
2019-04-06T03:30:29.115Z,98823.79
2019-04-06T03:32:57.077Z,98823.31
2019-04-06T03:35:25.566Z,98817.16
2019-04-06T03:37:53.227Z,98816.69
2019-04-06T03:40:21.119Z,98806.20
2019-04-06T03:42:48.871Z,98803.67
2019-04-06T03:45:16.830Z,98811.28
2019-04-06T03:47:44.785Z,98817.00
2019-04-06T03:50:12.409Z,98817.00
2019-04-06T03:52:40.099Z,98807.49
2019-04-06T03:55:08.192Z,98811.12
2019-04-06T03:57:36.289Z,98810.20
2019-04-06T04:00:04.028Z,98809.16
2019-04-06T04:02:31.925Z,98810.73
2019-04-06T04:04:59.713Z,98801.73
2019-04-06T04:07:27.400Z,98801.73
2019-04-06T04:09:55.085Z,98810.78
2019-04-06T04:12:22.970Z,98814.29
2019-04-06T04:14:51.038Z,98804.86
2019-04-06T04:17:18.687Z,98802.55
2019-04-06T04:19:46.364Z,98802.55
2019-04-06T04:22:14.059Z,98806.41
2019-04-06T04:24:41.772Z,98804.95
2019-04-06T04:27:09.403Z,98808.42
2019-04-06T04:29:37.121Z,98808.42
2019-04-06T04:32:04.767Z,98810.61
2019-04-06T04:34:32.535Z,98814.11
2019-04-06T04:37:00.400Z,98812.78
2019-04-06T04:39:37.192Z,98812.78
2019-04-06T04:42:05.100Z,98817.92
2019-04-06T04:44:32.909Z,98816.60
2019-04-06T04:47:00.797Z,98821.31
2019-04-06T04:49:28.797Z,98823.68
2019-04-06T04:51:56.481Z,98832.33
2019-04-06T04:54:24.158Z,98832.33
2019-04-06T04:56:51.851Z,98836.88
2019-04-06T04:59:19.827Z,98836.88
2019-04-06T05:01:47.550Z,98835.42
2019-04-06T05:04:15.185Z,98833.85
2019-04-06T05:06:42.971Z,98833.85
2019-04-06T05:09:10.843Z,98853.21
2019-04-06T05:11:38.497Z,98845.60
2019-04-06T05:14:06.221Z,98845.60
2019-04-06T05:16:34.274Z,98854.63
2019-04-06T05:19:04.336Z,98850.37
2019-04-06T05:21:31.231Z,98848.30
2019-04-06T05:23:59.181Z,98848.30
2019-04-06T05:26:36.847Z,98848.23
2019-04-06T05:28:56.158Z,98840.27
2019-04-06T05:31:24.071Z,98840.27
2019-04-06T05:33:51.740Z,98855.94
2019-04-06T05:36:19.543Z,98853.98
2019-04-06T05:38:47.465Z,98854.33
2019-04-06T05:41:15.132Z,98854.33
2019-04-06T05:43:42.803Z,98855.37
2019-04-06T05:46:10.775Z,98857.04
2019-04-06T05:48:38.488Z,98857.04
2019-04-06T05:51:06.137Z,98853.03
2019-04-06T05:53:34.070Z,98853.03
2019-04-06T05:56:01.762Z,98860.36
2019-04-06T05:58:29.385Z,98862.25
2019-04-06T06:00:57.370Z,98861.97
2019-04-06T06:03:25.896Z,98858.71
2019-04-06T06:05:56.280Z,98860.09
2019-04-06T06:08:24.183Z,98856.55
2019-04-06T06:10:51.866Z,98864.23
2019-04-06T06:13:19.737Z,98868.30
2019-04-06T06:15:47.704Z,98866.34
2019-04-06T06:18:25.663Z,98866.34
2019-04-06T06:20:48.357Z,98864.59
2019-04-06T06:23:16.686Z,98863.20
2019-04-06T06:25:44.741Z,98859.94
2019-04-06T06:28:15.271Z,98859.94
2019-04-06T06:30:42.180Z,98861.32
2019-04-06T06:33:10.018Z,98861.67
2019-04-06T06:35:37.771Z,98868.39
2019-04-06T06:38:05.858Z,98862.79
2019-04-06T06:40:33.592Z,98860.35
2019-04-06T06:43:01.272Z,98853.92
2019-04-06T06:45:29.402Z,98860.27
2019-04-06T06:47:57.077Z,98864.91
2019-04-06T06:50:24.703Z,98864.91
2019-04-06T06:52:52.667Z,98872.10
2019-04-06T06:55:20.382Z,98869.50
2019-04-06T06:57:48.055Z,98865.86
2019-04-06T07:00:18.791Z,98865.86
2019-04-06T07:02:46.434Z,98864.61
2019-04-06T07:05:14.150Z,98865.98
2019-04-06T07:07:42.189Z,98867.39
2019-04-06T07:10:09.998Z,98872.75
2019-04-06T07:12:37.646Z,98875.33
2019-04-06T07:15:05.701Z,98872.75
2019-04-06T07:17:33.392Z,98872.75
2019-04-06T07:20:04.163Z,98879.30
2019-04-06T07:22:31.879Z,98873.21
2019-04-06T07:25:01.475Z,98877.48
2019-04-06T07:27:31.020Z,98873.88
2019-04-06T07:30:00.567Z,98871.14
2019-04-06T07:32:30.307Z,98871.14
2019-04-06T07:34:58.743Z,98870.64
2019-04-06T07:37:26.452Z,98878.48
2019-04-06T07:39:54.148Z,98878.48
2019-04-06T07:42:31.237Z,98866.76
2019-04-06T07:45:03.471Z,98871.84
2019-04-06T07:47:31.622Z,98861.44
2019-04-06T07:50:00.465Z,98861.44
2019-04-06T07:52:30.517Z,98856.58
2019-04-06T07:54:58.522Z,98866.05
2019-04-06T07:57:26.468Z,98867.48
2019-04-06T07:59:54.195Z,98869.27
2019-04-06T08:02:24.803Z,98860.84
2019-04-06T08:04:52.549Z,98854.11
2019-04-06T08:07:20.170Z,98854.11
2019-04-06T08:09:57.213Z,98862.44
2019-04-06T08:12:22.436Z,98854.89
2019-04-06T08:14:50.190Z,98846.19
2019-04-06T08:17:29.984Z,98846.19
2019-04-06T08:19:57.688Z,98852.66
2019-04-06T08:22:25.675Z,98844.88
2019-04-06T08:24:53.557Z,98849.13
2019-04-06T08:27:21.238Z,98847.31
2019-04-06T08:29:49.139Z,98845.84
2019-04-06T08:32:18.815Z,98839.14
2019-04-06T08:34:46.808Z,98842.84
2019-04-06T08:37:15.673Z,98844.34
2019-04-06T08:39:44.432Z,98850.52
2019-04-06T08:42:12.434Z,98850.67
2019-04-06T08:44:40.296Z,98845.80
2019-04-06T08:47:09.609Z,98847.78
2019-04-06T08:49:37.705Z,98841.58
2019-04-06T08:52:05.732Z,98844.23
2019-04-06T08:54:33.493Z,98839.24
2019-04-06T08:57:04.244Z,98841.07
2019-04-06T08:59:31.967Z,98845.09
2019-04-06T09:01:59.588Z,98843.39
2019-04-06T09:04:27.722Z,98847.08
2019-04-06T09:06:55.362Z,98848.09
2019-04-06T09:09:23.338Z,98853.47
2019-04-06T09:11:52.437Z,98860.86
2019-04-06T09:14:20.249Z,98860.86
2019-04-06T09:16:48.181Z,98864.55
2019-04-06T09:19:18.877Z,98860.05
2019-04-06T09:21:46.680Z,98859.54
2019-04-06T09:24:14.601Z,98858.37
2019-04-06T09:26:47.997Z,98853.17
2019-04-06T09:29:23.166Z,98850.81
2019-04-06T09:31:45.699Z,98839.25
2019-04-06T09:34:13.407Z,98847.45
2019-04-06T09:36:44.631Z,98847.45
2019-04-06T09:39:12.283Z,98847.59
2019-04-06T09:41:40.030Z,98846.55
2019-04-06T09:44:12.809Z,98846.70
2019-04-06T09:46:58.033Z,98840.66
2019-04-06T09:49:46.843Z,98844.00
2019-04-06T09:52:38.748Z,98844.00
2019-04-06T09:55:21.961Z,98835.92
2019-04-06T09:58:06.599Z,98833.20
2019-04-06T10:00:51.430Z,98837.84
2019-04-06T10:03:36.606Z,98831.73
2019-04-06T10:06:25.523Z,98819.97
2019-04-06T10:09:14.956Z,98819.97
2019-04-06T10:12:13.248Z,98819.16
2019-04-06T10:14:55.556Z,98822.80
2019-04-06T10:17:45.366Z,98820.66
2019-04-06T10:20:34.699Z,98820.66
2019-04-06T10:23:30.543Z,98818.64
2019-04-06T10:26:12.147Z,98818.00
2019-04-06T10:28:57.083Z,98812.95
2019-04-06T10:31:49.600Z,98817.77
2019-04-06T10:34:51.288Z,98817.92
2019-04-06T10:37:52.984Z,98815.77
2019-04-06T10:40:29.522Z,98818.01
2019-04-06T10:43:14.574Z,98812.87
2019-04-06T10:45:59.717Z,98816.72
2019-04-06T10:48:47.743Z,98808.06
2019-04-06T10:51:37.272Z,98816.12
2019-04-06T10:54:26.857Z,98818.63
2019-04-06T10:57:13.675Z,98812.76
2019-04-06T11:00:00.946Z,98805.51
2019-04-06T11:02:45.051Z,98806.44
2019-04-06T11:05:28.526Z,98804.30
2019-04-06T11:08:15.519Z,98800.80
2019-04-06T11:11:20.743Z,98795.67
2019-04-06T11:14:13.216Z,98797.78
2019-04-06T11:17:05.593Z,98798.95
2019-04-06T11:19:51.209Z,98797.42
2019-04-06T11:22:55.794Z,98792.84
2019-04-06T11:25:57.415Z,98791.95
2019-04-06T11:28:46.553Z,98792.41
2019-04-06T11:31:36.713Z,98799.94
2019-04-06T11:34:14.730Z,98792.53
2019-04-06T11:37:00.102Z,98787.34
2019-04-06T11:39:46.659Z,98787.34
2019-04-06T11:42:31.728Z,98789.08
2019-04-06T11:45:21.349Z,98784.77
2019-04-06T11:48:00.981Z,98786.73
2019-04-06T11:50:53.730Z,98776.64
2019-04-06T11:53:43.619Z,98781.81
2019-04-06T11:56:35.068Z,98781.81
2019-04-06T11:59:21.986Z,98785.39
2019-04-06T12:02:17.578Z,98785.70
2019-04-06T12:05:13.611Z,98776.05
2019-04-06T12:08:09.007Z,98780.88
2019-04-06T12:11:07.827Z,98780.56
2019-04-06T12:14:06.309Z,98771.42
2019-04-06T12:16:43.515Z,98775.95
2019-04-06T12:19:39.085Z,98781.33
2019-04-06T12:22:24.853Z,98778.88
2019-04-06T12:25:18.156Z,98775.36
2019-04-06T12:27:53.279Z,98772.90
2019-04-06T12:30:40.170Z,98774.14
2019-04-06T12:33:25.426Z,98765.42
2019-04-06T12:36:11.911Z,98764.23
2019-04-06T12:38:55.591Z,98759.88
2019-04-06T12:41:40.939Z,98754.58
2019-04-06T12:44:42.690Z,98755.82
2019-04-06T12:47:29.310Z,98763.28
2019-04-06T12:50:22.696Z,98759.05
2019-04-06T12:53:28.937Z,98764.70
2019-04-06T12:56:13.375Z,98762.86
2019-04-06T12:58:59.128Z,98762.55
2019-04-06T13:01:36.481Z,98761.25
2019-04-06T13:04:21.422Z,98747.84
2019-04-06T13:07:06.665Z,98747.84
2019-04-06T13:09:51.663Z,98756.77
2019-04-06T13:12:36.351Z,98750.66
2019-04-06T13:15:21.669Z,98749.28
2019-04-06T13:18:07.380Z,98736.77
2019-04-06T13:20:55.829Z,98734.94
2019-04-06T13:23:46.933Z,98734.94
2019-04-06T13:26:35.500Z,98730.86
2019-04-06T13:29:28.191Z,98730.86
2019-04-06T13:32:16.120Z,98736.39
2019-04-06T13:35:01.333Z,98737.38
2019-04-06T13:37:47.893Z,98729.40
2019-04-06T13:40:33.441Z,98729.10
2019-04-06T13:43:25.694Z,98722.48
2019-04-06T13:46:15.325Z,98724.13
2019-04-06T13:49:13.935Z,98722.98
2019-04-06T13:51:48.735Z,98722.98
2019-04-06T13:54:50.745Z,98732.49
2019-04-06T13:57:33.616Z,98732.33
2019-04-06T14:00:23.170Z,98732.33
2019-04-06T14:03:12.314Z,98729.27
2019-04-06T14:05:58.757Z,98713.24
2019-04-06T14:08:45.590Z,98713.24
2019-04-06T14:11:34.854Z,98717.52
2019-04-06T14:14:24.815Z,98725.64
2019-04-06T14:17:09.966Z,98716.80
2019-04-06T14:20:06.239Z,98712.28
2019-04-06T14:22:48.979Z,98712.23
2019-04-06T14:25:29.647Z,98720.28
2019-04-06T14:28:16.334Z,98721.11
2019-04-06T14:31:06.132Z,98721.34
2019-04-06T14:34:10.653Z,98724.67
2019-04-06T14:36:51.992Z,98727.03
2019-04-06T14:39:37.248Z,98726.14
2019-04-06T14:42:46.230Z,98730.75
2019-04-06T14:45:13.522Z,98730.78
2019-04-06T14:48:06.173Z,98727.59
2019-04-06T14:50:52.947Z,98724.49
2019-04-06T14:53:35.919Z,98724.49
2019-04-06T14:56:26.755Z,98723.11
2019-04-06T14:59:11.506Z,98722.03
2019-04-06T15:02:00.216Z,98719.78
2019-04-06T15:04:56.226Z,98719.78
2019-04-06T15:07:50.506Z,98717.72
2019-04-06T15:10:37.438Z,98715.67
2019-04-06T15:13:24.368Z,98715.67
2019-04-06T15:16:26.673Z,98717.52
2019-04-06T15:19:19.383Z,98715.10
2019-04-06T15:22:06.298Z,98712.77
2019-04-06T15:24:55.661Z,98712.77
2019-04-06T15:27:38.689Z,98720.24
2019-04-06T15:30:37.398Z,98713.72
2019-04-06T15:33:19.683Z,98710.78
2019-04-06T15:36:14.878Z,98710.78
2019-04-06T15:38:57.084Z,98704.31
2019-04-06T15:41:56.160Z,98699.13
2019-04-06T15:44:30.662Z,98699.13
2019-04-06T15:47:28.507Z,98698.43
2019-04-06T15:50:15.242Z,98697.14
2019-04-06T15:53:20.709Z,98695.27
2019-04-06T15:56:10.438Z,98693.66
2019-04-06T15:59:02.991Z,98696.36
2019-04-06T16:02:01.710Z,98700.36
2019-04-06T16:04:32.947Z,98700.53
2019-04-06T16:07:32.458Z,98700.53
2019-04-06T16:10:17.012Z,98703.94
2019-04-06T16:13:03.783Z,98705.54
2019-04-06T16:15:52.574Z,98707.00
2019-04-06T16:18:39.359Z,98703.09
2019-04-06T16:21:26.121Z,98706.92
2019-04-06T16:24:11.639Z,98710.19
2019-04-06T16:26:47.906Z,98710.36
2019-04-06T16:29:29.848Z,98710.36
2019-04-06T16:32:33.887Z,98708.06
2019-04-06T16:35:16.074Z,98708.06
2019-04-06T16:37:52.633Z,98712.91
2019-04-06T16:40:32.670Z,98714.81
2019-04-06T16:43:15.249Z,98718.30
2019-04-06T16:46:08.266Z,98728.70
2019-04-06T16:48:55.135Z,98724.58
2019-04-06T16:51:52.315Z,98724.58
2019-04-06T16:54:39.216Z,98718.70
2019-04-06T16:57:39.396Z,98714.38
2019-04-06T17:00:32.126Z,98714.38
2019-04-06T17:03:18.666Z,98718.32
2019-04-06T17:06:11.620Z,98721.91
2019-04-06T17:09:13.349Z,98716.22
2019-04-06T17:12:15.313Z,98715.90
2019-04-06T17:15:02.422Z,98715.78
2019-04-06T17:17:50.033Z,98718.32
2019-04-06T17:20:38.979Z,98707.20
2019-04-06T17:23:25.803Z,98708.13
2019-04-06T17:26:11.041Z,98702.73
2019-04-06T17:29:06.302Z,98709.20
2019-04-06T17:31:55.687Z,98711.88
2019-04-06T17:34:54.518Z,98711.88
2019-04-06T17:37:29.991Z,98709.97
2019-04-06T17:40:16.816Z,98712.59
2019-04-06T17:43:18.515Z,98703.23
2019-04-06T17:46:05.308Z,98703.23
2019-04-06T17:48:57.492Z,98706.50
2019-04-06T17:51:31.327Z,98706.50
2019-04-06T17:54:18.898Z,98708.96
2019-04-06T17:57:03.789Z,98719.94
2019-04-06T17:59:44.925Z,98719.78
2019-04-06T18:02:32.517Z,98717.38
2019-04-06T18:05:16.964Z,98717.38
2019-04-06T18:08:06.776Z,98719.48
2019-04-06T18:10:54.672Z,98721.99
2019-04-06T18:13:43.609Z,98721.99
2019-04-06T18:16:12.741Z,98720.05
2019-04-06T18:18:40.748Z,98729.80
2019-04-06T18:21:11.856Z,98725.81
2019-04-06T18:23:39.607Z,98725.00
2019-04-06T18:26:10.074Z,98729.23
2019-04-06T18:28:37.728Z,98732.12
2019-04-06T18:31:24.767Z,98732.12
2019-04-06T18:33:58.044Z,98741.36
2019-04-06T18:36:30.960Z,98741.36
2019-04-06T18:39:06.036Z,98741.70
2019-04-06T18:41:43.220Z,98741.70
2019-04-06T18:44:11.217Z,98740.38
2019-04-06T18:46:41.923Z,98740.38
2019-04-06T18:49:12.478Z,98742.89
2019-04-06T18:51:40.215Z,98739.55
2019-04-06T18:54:09.429Z,98741.22
2019-04-06T18:56:37.504Z,98746.19
2019-04-06T18:59:05.289Z,98746.19
2019-04-06T19:01:33.644Z,98743.50
2019-04-06T19:04:01.407Z,98743.52
2019-04-06T19:06:32.146Z,98751.84
2019-04-06T19:09:05.288Z,98751.84
2019-04-06T19:11:30.172Z,98755.52
2019-04-06T19:13:58.108Z,98760.84
2019-04-06T19:16:26.156Z,98760.84
2019-04-06T19:18:54.637Z,98760.52
2019-04-06T19:21:22.984Z,98763.33
2019-04-06T19:23:50.697Z,98761.63
2019-04-06T19:26:18.806Z,98761.63
2019-04-06T19:28:46.974Z,98769.95
2019-04-06T19:31:15.084Z,98769.95
2019-04-06T19:33:43.146Z,98773.44
2019-04-06T19:36:11.283Z,98763.23
2019-04-06T19:38:41.413Z,98763.23
2019-04-06T19:41:12.436Z,98772.66
2019-04-06T19:43:40.382Z,98785.44
2019-04-06T19:46:08.096Z,98777.91
2019-04-06T19:48:40.511Z,98777.91
2019-04-06T19:51:08.708Z,98777.87
2019-04-06T19:53:37.957Z,98787.78
2019-04-06T19:56:05.666Z,98783.40
2019-04-06T19:58:37.075Z,98775.27
2019-04-06T20:01:04.766Z,98775.27
2019-04-06T20:03:35.971Z,98778.73
2019-04-06T20:06:02.004Z,98770.59
2019-04-06T20:08:29.762Z,98770.59
2019-04-06T20:11:11.114Z,98770.78
2019-04-06T20:13:39.076Z,98774.64
2019-04-06T20:16:09.034Z,98773.16
2019-04-06T20:18:36.809Z,98766.17
2019-04-06T20:21:06.444Z,98771.98
2019-04-06T20:23:34.526Z,98770.17
2019-04-06T20:26:02.719Z,98770.17
2019-04-06T20:28:31.388Z,98765.66
2019-04-06T20:30:59.052Z,98766.03
2019-04-06T20:33:26.784Z,98764.84
2019-04-06T20:35:54.716Z,98770.84
2019-04-06T20:38:22.938Z,98761.31
2019-04-06T20:40:50.543Z,98765.27
2019-04-06T20:43:18.584Z,98765.59
2019-04-06T20:45:46.570Z,98765.59
2019-04-06T20:48:14.970Z,98762.89
2019-04-06T20:50:46.074Z,98767.55
2019-04-06T20:53:16.323Z,98769.16
2019-04-06T20:55:43.965Z,98766.48
2019-04-06T20:58:12.189Z,98766.48
2019-04-06T21:00:42.732Z,98770.84
2019-04-06T21:03:12.505Z,98770.84
2019-04-06T21:05:41.389Z,98766.96
2019-04-06T21:08:09.969Z,98775.22
2019-04-06T21:10:37.581Z,98773.57
2019-04-06T21:13:08.316Z,98778.36
2019-04-06T21:15:36.225Z,98776.16
2019-04-06T21:18:04.386Z,98782.28
2019-04-06T21:20:36.881Z,98777.59
2019-04-06T21:23:06.623Z,98777.59
2019-04-06T21:25:34.418Z,98776.20
2019-04-06T21:28:02.631Z,98765.80
2019-04-06T21:30:31.312Z,98765.80
2019-04-06T21:32:59.000Z,98770.11
2019-04-06T21:35:26.945Z,98770.11
2019-04-06T21:37:54.758Z,98769.13
2019-04-06T21:40:22.496Z,98765.80
2019-04-06T21:42:51.147Z,98765.80
2019-04-06T21:45:19.677Z,98767.14
2019-04-06T21:47:47.800Z,98767.14
2019-04-06T21:50:18.660Z,98773.84
2019-04-06T21:52:49.553Z,98771.78
2019-04-06T21:55:17.835Z,98771.78
2019-04-06T21:57:45.842Z,98773.56
2019-04-06T22:00:15.838Z,98777.21
2019-04-06T22:02:43.718Z,98780.05
2019-04-06T22:05:13.785Z,98781.98
2019-04-06T22:07:48.068Z,98781.78
2019-04-06T22:10:11.745Z,98783.63
2019-04-06T22:12:39.996Z,98779.50
2019-04-06T22:15:08.479Z,98781.37
2019-04-06T22:17:36.641Z,98781.37
2019-04-06T22:20:04.638Z,98772.59
2019-04-06T22:22:32.622Z,98775.77
2019-04-06T22:25:00.811Z,98769.03
2019-04-06T22:27:28.972Z,98766.41
2019-04-06T22:29:56.716Z,98766.41
2019-04-06T22:32:24.703Z,98765.80
2019-04-06T22:34:56.707Z,98772.59
2019-04-06T22:37:27.182Z,98768.34
2019-04-06T22:39:55.062Z,98768.34
2019-04-06T22:42:22.738Z,98758.11
2019-04-06T22:44:50.972Z,98758.11
2019-04-06T22:47:22.096Z,98750.84
2019-04-06T22:49:54.615Z,98751.81
2019-04-06T22:52:22.321Z,98751.81
2019-04-06T22:54:50.327Z,98760.79
2019-04-06T22:57:21.230Z,98760.79
2019-04-06T22:59:50.762Z,98756.10
2019-04-06T23:02:21.539Z,98756.10
2019-04-06T23:05:08.495Z,98761.57
2019-04-06T23:07:39.278Z,98765.23
2019-04-06T23:10:11.092Z,98760.98
2019-04-06T23:12:45.150Z,98764.64
2019-04-06T23:15:13.123Z,98764.64
2019-04-06T23:17:40.840Z,98762.62
2019-04-06T23:20:10.532Z,98762.62
2019-04-06T23:22:38.486Z,98763.28
2019-04-06T23:25:06.430Z,98763.91
2019-04-06T23:27:34.060Z,98758.58
2019-04-06T23:30:02.171Z,98758.58
2019-04-06T23:32:29.798Z,98754.95
2019-04-06T23:35:01.572Z,98752.12
2019-04-06T23:37:27.131Z,98752.97
2019-04-06T23:39:54.984Z,98752.97
2019-04-06T23:42:22.758Z,98759.97
2019-04-06T23:44:51.540Z,98751.18
2019-04-06T23:47:19.158Z,98747.86
2019-04-06T23:49:46.873Z,98752.20
2019-04-06T23:52:15.356Z,98752.20
2019-04-06T23:54:42.984Z,98749.05
2019-04-06T23:57:10.652Z,98751.06
2019-04-06T23:59:38.688Z,98749.39
